Time;durP1;ratioP1;P1;durP2;ratioP2;P2;SDS_P1;SDS_P2;PMS_P1;PMS_P2;Temp;Humidity;BMP_temperature;BMP_pressure;BME280_temperature;BME280_humidity;BME280_pressure;Samples;Min_cycle;Max_cycle;Signal;HPM_P1;HPM_P2
2024/01/01 00:01:38;;;;;;;1999.90;999.90;;;6.10;99.90;;;;;;4995090;28;20475;-73
2024/01/01 00:04:03;;;;;;;1999.90;999.90;;;6.10;99.90;;;;;;4995254;28;20030;-73
2024/01/01 00:06:29;;;;;;;1999.90;999.90;;;6.00;99.90;;;;;;4995488;28;20440;-73
2024/01/01 00:08:54;;;;;;;1999.90;999.90;;;6.00;99.90;;;;;;4995407;28;20034;-74
2024/01/01 00:11:20;;;;;;;1999.90;999.90;;;5.90;99.90;;;;;;4995162;28;20042;-74
2024/01/01 00:13:45;;;;;;;1999.90;999.90;;;5.90;99.90;;;;;;5009585;28;20023;-73
2024/01/01 00:16:14;;;;;;;1999.90;999.90;;;5.90;99.90;;;;;;4995132;28;20057;-74
2024/01/01 00:18:41;;;;;;;1999.90;999.90;;;5.80;99.90;;;;;;4995251;28;20039;-74
2024/01/01 00:21:07;;;;;;;1999.90;999.90;;;5.70;99.90;;;;;;4994590;28;20149;-74
2024/01/01 00:23:33;;;;;;;1999.90;999.90;;;5.70;99.90;;;;;;5009657;28;20779;-74
2024/01/01 00:25:58;;;;;;;1999.90;999.90;;;5.60;99.90;;;;;;4995227;28;20049;-74
2024/01/01 00:28:24;;;;;;;1999.90;999.90;;;5.70;99.90;;;;;;4995408;28;20035;-74
2024/01/01 00:30:49;;;;;;;1999.90;999.90;;;5.70;99.90;;;;;;4994804;28;20041;-74
2024/01/01 00:33:15;;;;;;;1999.90;999.90;;;5.90;99.90;;;;;;4995234;28;20034;-74
2024/01/01 00:35:40;;;;;;;1999.90;999.90;;;5.90;99.90;;;;;;4995529;28;20042;-74
2024/01/01 00:38:06;;;;;;;1999.90;999.90;;;6.00;99.90;;;;;;4974452;28;20039;-73
2024/01/01 00:40:31;;;;;;;1999.90;999.90;;;6.10;99.90;;;;;;4975267;28;20078;-74
2024/01/01 00:42:57;;;;;;;1999.90;999.90;;;6.10;99.90;;;;;;4974266;28;20024;-74
2024/01/01 00:45:23;;;;;;;1999.90;999.90;;;6.20;99.90;;;;;;4975559;28;20035;-73
2024/01/01 00:47:48;;;;;;;1999.90;999.90;;;6.10;99.90;;;;;;4990707;28;20036;-74
2024/01/01 00:50:14;;;;;;;1999.90;999.90;;;6.20;99.90;;;;;;4975637;28;20039;-74
2024/01/01 00:52:39;;;;;;;1999.90;999.90;;;6.30;99.90;;;;;;4990331;28;20038;-74
2024/01/01 00:55:05;;;;;;;1999.90;999.90;;;6.20;99.90;;;;;;4975705;28;20070;-75
2024/01/01 00:57:31;;;;;;;1999.90;999.90;;;6.30;99.90;;;;;;4975361;28;20587;-74
2024/01/01 00:59:56;;;;;;;1999.90;999.90;;;6.30;99.90;;;;;;4975130;28;20039;-75
2024/01/01 01:02:22;;;;;;;1999.90;999.90;;;6.30;99.90;;;;;;4975384;28;20042;-73
2024/01/01 01:04:48;;;;;;;1999.90;999.90;;;6.30;99.90;;;;;;4990168;28;20040;-75
2024/01/01 01:07:13;;;;;;;1999.90;999.90;;;6.30;99.90;;;;;;4974010;28;20405;-75
2024/01/01 01:09:39;;;;;;;1999.90;999.90;;;6.30;99.90;;;;;;4975434;28;20075;-75
2024/01/01 01:12:05;;;;;;;1999.90;999.90;;;6.30;99.90;;;;;;4975475;28;20051;-75
2024/01/01 01:14:31;;;;;;;1999.90;999.90;;;6.20;99.90;;;;;;4974940;28;20036;-75
2024/01/01 01:16:56;;;;;;;1999.90;999.90;;;6.20;99.90;;;;;;4975324;28;20544;-74
2024/01/01 01:19:22;;;;;;;1999.90;999.90;;;6.20;99.90;;;;;;4975217;28;20035;-75
2024/01/01 01:21:47;;;;;;;1999.90;999.90;;;6.20;99.90;;;;;;4974923;28;20477;-75
2024/01/01 01:24:15;;;;;;;1999.90;999.90;;;6.20;99.90;;;;;;4975058;28;20039;-75
2024/01/01 01:26:41;;;;;;;1999.90;999.90;;;6.20;99.90;;;;;;4973681;28;20094;-75
2024/01/01 01:29:09;;;;;;;1999.90;999.90;;;6.20;99.90;;;;;;4973629;28;20118;-75
2024/01/01 01:31:34;;;;;;;1999.90;999.90;;;6.20;99.90;;;;;;4974996;28;20032;-74
2024/01/01 01:34:00;;;;;;;1999.90;999.90;;;6.20;99.90;;;;;;4973486;28;20034;-74
2024/01/01 01:36:25;;;;;;;1999.90;999.90;;;6.30;99.90;;;;;;4973549;28;20054;-75
2024/01/01 01:38:51;;;;;;;1999.90;999.90;;;6.30;99.90;;;;;;4989708;28;20027;-75
2024/01/01 01:41:16;;;;;;;1999.90;999.90;;;6.30;99.90;;;;;;4973462;28;20370;-74
2024/01/01 01:43:42;;;;;;;1999.90;999.90;;;6.30;99.90;;;;;;4977996;28;20426;-75
2024/01/01 01:46:08;;;;;;;1999.90;999.90;;;6.20;99.90;;;;;;4978253;28;20050;-74
2024/01/01 01:48:34;;;;;;;1999.90;999.90;;;6.30;99.90;;;;;;4993175;28;20031;-74
2024/01/01 01:51:00;;;;;;;1999.90;999.90;;;6.30;99.90;;;;;;4978188;28;20035;-75
2024/01/01 01:53:27;;;;;;;1999.90;999.90;;;6.20;99.90;;;;;;4978147;28;20027;-75
2024/01/01 01:55:56;;;;;;;1999.90;999.90;;;6.20;99.90;;;;;;4978175;28;20051;-75
2024/01/01 01:58:21;;;;;;;1999.90;999.90;;;6.20;99.90;;;;;;4977955;28;20031;-75
2024/01/01 02:00:48;;;;;;;1999.90;999.90;;;6.20;99.90;;;;;;4976438;28;20035;-75
2024/01/01 02:03:14;;;;;;;1999.90;999.90;;;6.20;99.90;;;;;;4977876;28;20863;-75
2024/01/01 02:05:40;;;;;;;1999.90;999.90;;;6.20;99.90;;;;;;4978357;28;20098;-74
2024/01/01 02:08:06;;;;;;;1999.90;999.90;;;6.20;99.90;;;;;;4978102;28;20031;-75
2024/01/01 02:10:32;;;;;;;1999.90;999.90;;;6.10;99.90;;;;;;4977909;28;20043;-74
2024/01/01 02:12:59;;;;;;;1999.90;999.90;;;6.20;99.90;;;;;;4977585;28;20032;-74
2024/01/01 02:15:25;;;;;;;1999.90;999.90;;;6.20;99.90;;;;;;4977742;28;20126;-74
2024/01/01 02:17:51;;;;;;;1999.90;999.90;;;6.10;99.90;;;;;;4977654;28;20031;-75
2024/01/01 02:20:17;;;;;;;1999.90;999.90;;;6.10;99.90;;;;;;4977404;28;20042;-74
2024/01/01 02:22:42;;;;;;;1999.90;999.90;;;6.20;99.90;;;;;;4977790;28;20035;-75
2024/01/01 02:25:09;;;;;;;1999.90;999.90;;;6.10;99.90;;;;;;4977914;28;20118;-75
2024/01/01 02:27:36;;;;;;;1999.90;999.90;;;6.10;99.90;;;;;;4977845;28;20035;-74
2024/01/01 02:30:03;;;;;;;1999.90;999.90;;;6.10;99.90;;;;;;4976076;28;20036;-74
2024/01/01 02:32:28;;;;;;;1999.90;999.90;;;6.20;99.90;;;;;;4977587;28;20086;-75
2024/01/01 02:34:54;;;;;;;1999.90;999.90;;;6.10;99.90;;;;;;4977429;28;20043;-75
2024/01/01 02:37:19;;;;;;;1999.90;999.90;;;6.10;99.90;;;;;;4977298;28;20035;-75
2024/01/01 02:39:45;;;;;;;1999.90;999.90;;;6.10;99.90;;;;;;4977315;28;20401;-75
2024/01/01 02:42:10;;;;;;;1999.90;999.90;;;6.10;99.90;;;;;;4977401;28;20043;-75
2024/01/01 02:44:36;;;;;;;1999.90;999.90;;;6.10;99.90;;;;;;4977224;28;20036;-75
2024/01/01 02:47:02;;;;;;;1999.90;999.90;;;6.10;99.90;;;;;;4976757;28;20031;-75
2024/01/01 02:49:27;;;;;;;1999.90;999.90;;;6.10;99.90;;;;;;4977119;28;20046;-75
2024/01/01 02:51:53;;;;;;;1999.90;999.90;;;6.10;99.90;;;;;;4977231;28;20494;-75
2024/01/01 02:54:19;;;;;;;1999.90;999.90;;;6.10;99.90;;;;;;4977135;28;20043;-75
2024/01/01 02:56:45;;;;;;;1999.90;999.90;;;6.10;99.90;;;;;;4977346;28;20481;-74
2024/01/01 02:59:11;;;;;;;1999.90;999.90;;;6.10;99.90;;;;;;4975894;28;20040;-74
2024/01/01 03:01:36;;;;;;;1999.90;999.90;;;6.10;99.90;;;;;;4975621;28;20492;-74
2024/01/01 03:04:02;;;;;;;1999.90;999.90;;;6.10;99.90;;;;;;4976997;28;20036;-74
2024/01/01 03:06:28;;;;;;;1999.90;999.90;;;6.20;99.90;;;;;;4977351;28;20122;-74
2024/01/01 03:08:53;;;;;;;1999.90;999.90;;;6.20;99.90;;;;;;4977087;28;20114;-74
2024/01/01 03:11:19;;;;;;;1999.90;999.90;;;6.30;99.90;;;;;;4977072;28;20494;-74
2024/01/01 03:13:44;;;;;;;1999.90;999.90;;;6.30;99.90;;;;;;4976871;28;20473;-74
2024/01/01 03:16:10;;;;;;;1999.90;999.90;;;6.30;99.90;;;;;;4976975;28;20496;-74
2024/01/01 03:18:35;;;;;;;1999.90;999.90;;;6.30;99.90;;;;;;4976954;28;20404;-75
2024/01/01 03:21:01;;;;;;;1999.90;999.90;;;6.30;99.90;;;;;;5038853;23;20041;-73
2024/01/01 03:23:26;;;;;;;1999.90;999.90;;;6.30;99.90;;;;;;5055299;28;20038;-74
2024/01/01 03:25:52;;;;;;;1999.90;999.90;;;6.40;99.90;;;;;;5055910;28;20065;-78
2024/01/01 03:28:18;;;;;;;1999.90;999.90;;;6.40;99.90;;;;;;5055678;28;20041;-74
2024/01/01 03:30:44;;;;;;;1999.90;999.90;;;6.30;99.90;;;;;;5055663;28;20055;-74
2024/01/01 03:33:09;;;;;;;1999.90;999.90;;;6.40;99.90;;;;;;5053878;28;20041;-73
2024/01/01 03:35:35;;;;;;;1999.90;999.90;;;6.40;99.90;;;;;;5054030;28;20044;-74
2024/01/01 03:38:01;;;;;;;1999.90;999.90;;;6.40;99.90;;;;;;5055477;28;20083;-73
2024/01/01 03:40:27;;;;;;;1999.90;999.90;;;6.40;99.90;;;;;;5055381;28;20033;-74
2024/01/01 03:42:53;;;;;;;1999.90;999.90;;;6.40;99.90;;;;;;5055110;28;20037;-74
2024/01/01 03:45:19;;;;;;;1999.90;999.90;;;6.50;99.90;;;;;;5054213;28;20034;-74
2024/01/01 03:47:45;;;;;;;1999.90;999.90;;;6.50;99.90;;;;;;5055672;28;20029;-74
2024/01/01 03:50:10;;;;;;;1999.90;999.90;;;6.50;99.90;;;;;;5055315;28;20041;-74
2024/01/01 03:52:36;;;;;;;1999.90;999.90;;;6.50;99.90;;;;;;5055298;28;20037;-74
2024/01/01 03:55:03;;;;;;;1999.90;999.90;;;6.60;99.90;;;;;;5053562;28;20453;-74
2024/01/01 03:57:31;;;;;;;1999.90;999.90;;;6.60;99.90;;;;;;5055135;28;20518;-74
2024/01/01 03:59:57;;;;;;;1999.90;999.90;;;6.60;99.90;;;;;;5055230;28;20029;-74
2024/01/01 04:02:22;;;;;;;1999.90;999.90;;;6.60;99.90;;;;;;5055166;28;20037;-74
2024/01/01 04:04:49;;;;;;;1999.90;999.90;;;6.60;99.90;;;;;;5052840;28;20041;-74
2024/01/01 04:07:16;;;;;;;1999.90;999.90;;;6.60;99.90;;;;;;5055193;28;20025;-74
2024/01/01 04:09:41;;;;;;;1999.90;999.90;;;6.50;99.90;;;;;;5053761;28;20033;-74
2024/01/01 04:12:07;;;;;;;1999.90;999.90;;;6.50;99.90;;;;;;5055983;28;20030;-74
2024/01/01 04:14:33;;;;;;;1999.90;999.90;;;6.50;99.90;;;;;;5056245;28;20039;-74
2024/01/01 04:16:58;;;;;;;1999.90;999.90;;;6.50;99.90;;;;;;5056554;28;20063;-73
2024/01/01 04:19:24;;;;;;;1999.90;999.90;;;6.50;99.90;;;;;;5056019;28;20088;-73
2024/01/01 04:21:49;;;;;;;1999.90;999.90;;;6.50;99.90;;;;;;5054943;28;20045;-74
2024/01/01 04:24:15;;;;;;;1999.90;999.90;;;6.50;99.90;;;;;;5054538;28;20029;-74
2024/01/01 04:26:40;;;;;;;1999.90;999.90;;;6.50;99.90;;;;;;5054930;28;20061;-73
2024/01/01 04:29:06;;;;;;;1999.90;999.90;;;6.50;99.90;;;;;;5055037;28;20374;-74
2024/01/01 04:31:31;;;;;;;1999.90;999.90;;;6.40;99.90;;;;;;5054444;28;20042;-74
2024/01/01 04:33:57;;;;;;;1999.90;999.90;;;6.30;99.90;;;;;;5052917;28;20088;-73
2024/01/01 04:36:23;;;;;;;1999.90;999.90;;;6.10;99.90;;;;;;5054946;28;20360;-74
2024/01/01 04:38:48;;;;;;;1999.90;999.90;;;6.10;99.90;;;;;;5055009;28;20072;-74
2024/01/01 04:41:14;;;;;;;1999.90;999.90;;;6.20;99.90;;;;;;5054229;28;20042;-74
2024/01/01 04:43:40;;;;;;;1999.90;999.90;;;6.10;99.90;;;;;;5054674;28;20417;-74
2024/01/01 04:46:07;;;;;;;1999.90;999.90;;;6.20;99.90;;;;;;5054806;28;20037;-73
2024/01/01 04:48:34;;;;;;;1999.90;999.90;;;6.10;99.90;;;;;;5054509;28;20096;-73
2024/01/01 04:51:00;;;;;;;1999.90;999.90;;;6.00;99.90;;;;;;5054512;28;20041;-74
2024/01/01 04:53:25;;;;;;;1999.90;999.90;;;6.00;99.90;;;;;;5054414;28;20026;-74
2024/01/01 04:55:51;;;;;;;1999.90;999.90;;;6.10;99.90;;;;;;5054344;28;20116;-74
2024/01/01 04:58:16;;;;;;;1999.90;999.90;;;6.10;99.90;;;;;;5054575;28;20029;-74
2024/01/01 05:00:42;;;;;;;1999.90;999.90;;;6.10;99.90;;;;;;5054132;28;20037;-74
2024/01/01 05:03:08;;;;;;;1999.90;999.90;;;6.10;99.90;;;;;;5054081;28;20033;-73
2024/01/01 05:05:33;;;;;;;1999.90;999.90;;;6.20;99.90;;;;;;5053192;28;20076;-74
2024/01/01 05:07:59;;;;;;;1999.90;999.90;;;6.20;99.90;;;;;;5054628;28;20065;-74
2024/01/01 05:10:24;;;;;;;1999.90;999.90;;;6.20;99.90;;;;;;5054105;28;20033;-74
2024/01/01 05:12:50;;;;;;;1999.90;999.90;;;6.20;99.90;;;;;;5052703;28;20458;-74
2024/01/01 05:15:15;;;;;;;1999.90;999.90;;;6.30;99.90;;;;;;5053031;28;20553;-74
2024/01/01 05:17:41;;;;;;;1999.90;999.90;;;6.20;99.90;;;;;;5056187;28;20131;-74
2024/01/01 05:20:07;;;;;;;1999.90;999.90;;;6.20;99.90;;;;;;5057398;28;20033;-74
2024/01/01 05:22:32;;;;;;;1999.90;999.90;;;6.30;99.90;;;;;;5057863;28;20033;-74
2024/01/01 05:24:58;;;;;;;1999.90;999.90;;;6.20;99.90;;;;;;5057401;28;20040;-74
2024/01/01 05:27:24;;;;;;;1999.90;999.90;;;6.20;99.90;;;;;;5056521;28;20112;-74
2024/01/01 05:29:50;;;;;;;1999.90;999.90;;;6.20;99.90;;;;;;5057682;28;20099;-74
2024/01/01 05:32:16;;;;;;;1999.90;999.90;;;6.20;99.90;;;;;;5057754;28;20049;-74
2024/01/01 05:34:41;;;;;;;1999.90;999.90;;;6.20;99.90;;;;;;5057353;28;20391;-74
2024/01/01 05:37:08;;;;;;;1999.90;999.90;;;6.20;99.90;;;;;;5055782;28;20483;-74
2024/01/01 05:39:33;;;;;;;1999.90;999.90;;;6.20;99.90;;;;;;5057575;28;20049;-74
2024/01/01 05:41:59;;;;;;;1999.90;999.90;;;6.30;99.90;;;;;;5055778;28;20029;-74
2024/01/01 05:44:25;;;;;;;1999.90;999.90;;;6.30;99.90;;;;;;5057507;28;20399;-74
2024/01/01 05:46:50;;;;;;;1999.90;999.90;;;6.30;99.90;;;;;;5057467;28;20041;-74
2024/01/01 05:49:17;;;;;;;1999.90;999.90;;;6.40;99.90;;;;;;5057161;28;20041;-74
2024/01/01 05:51:43;;;;;;;1999.90;999.90;;;6.40;99.90;;;;;;5056984;28;20533;-74
2024/01/01 05:54:09;;;;;;;1999.90;999.90;;;6.40;99.90;;;;;;5057020;28;20470;-74
2024/01/01 05:56:34;;;;;;;1999.90;999.90;;;6.40;99.90;;;;;;5055652;28;20033;-74
2024/01/01 05:59:00;;;;;;;1999.90;999.90;;;6.50;99.90;;;;;;5057350;28;20040;-73
2024/01/01 06:01:26;;;;;;;1999.90;999.90;;;6.40;99.90;;;;;;5055743;28;20038;-74
2024/01/01 06:03:52;;;;;;;1999.90;999.90;;;6.50;99.90;;;;;;5055422;28;20029;-74
2024/01/01 06:06:17;;;;;;;1999.90;999.90;;;6.50;99.90;;;;;;5055514;28;20079;-74
2024/01/01 06:08:43;;;;;;;1999.90;999.90;;;6.50;99.90;;;;;;5055781;28;20380;-75
2024/01/01 06:11:09;;;;;;;1999.90;999.90;;;6.50;99.90;;;;;;5057045;28;20060;-74
2024/01/01 06:13:35;;;;;;;1999.90;999.90;;;6.50;99.90;;;;;;5056547;28;20037;-74
2024/01/01 06:16:00;;;;;;;1999.90;999.90;;;6.50;99.90;;;;;;5056962;28;20038;-74
2024/01/01 06:18:27;;;;;;;1999.90;999.90;;;6.50;99.90;;;;;;5056907;28;20030;-74
2024/01/01 06:20:53;;;;;;;1999.90;999.90;;;6.50;99.90;;;;;;5056100;28;20068;-74
2024/01/01 06:23:18;;;;;;;1999.90;999.90;;;6.60;99.90;;;;;;5056756;28;20057;-74
2024/01/01 06:25:44;;;;;;;1999.90;999.90;;;6.50;99.90;;;;;;5057075;28;20043;-74
2024/01/01 06:28:09;;;;;;;1999.90;999.90;;;6.50;99.90;;;;;;5056430;28;20040;-74
2024/01/01 06:30:35;;;;;;;1999.90;999.90;;;6.50;99.90;;;;;;5056626;28;20033;-75
2024/01/01 06:33:04;;;;;;;1999.90;999.90;;;6.50;99.90;;;;;;5056653;28;20029;-74
2024/01/01 06:35:30;;;;;;;1999.90;999.90;;;6.50;99.90;;;;;;5056077;28;20076;-74
2024/01/01 06:37:59;;;;;;;1999.90;999.90;;;6.50;99.90;;;;;;5055038;28;20038;-74
2024/01/01 06:40:25;;;;;;;1999.90;999.90;;;6.50;99.90;;;;;;5056575;28;20061;-74
2024/01/01 06:42:50;;;;;;;1999.90;999.90;;;6.50;99.90;;;;;;5056535;28;20029;-74
2024/01/01 06:45:17;;;;;;;1999.90;999.90;;;6.50;99.90;;;;;;5054906;28;20487;-74
2024/01/01 06:47:42;;;;;;;1999.90;999.90;;;6.40;99.90;;;;;;5054888;28;20038;-74
2024/01/01 06:50:08;;;;;;;1999.90;999.90;;;6.40;99.90;;;;;;5054758;28;20037;-74
2024/01/01 06:52:34;;;;;;;1999.90;999.90;;;6.50;99.90;;;;;;5056055;28;20034;-74
2024/01/01 06:54:59;;;;;;;1999.90;999.90;;;6.60;99.90;;;;;;5056180;28;20049;-74
2024/01/01 06:57:25;;;;;;;1999.90;999.90;;;6.60;99.90;;;;;;5056180;28;20479;-74
2024/01/01 06:59:51;;;;;;;1999.90;999.90;;;6.60;99.90;;;;;;5056261;28;20125;-74
2024/01/01 07:02:17;;;;;;;1999.90;999.90;;;6.50;99.90;;;;;;5056054;28;20041;-74
2024/01/01 07:04:42;;;;;;;1999.90;999.90;;;6.50;99.90;;;;;;5056060;28;20490;-74
2024/01/01 07:07:08;;;;;;;1999.90;999.90;;;6.40;99.90;;;;;;5056045;28;20100;-74
2024/01/01 07:09:34;;;;;;;1999.90;999.90;;;6.40;99.90;;;;;;5056059;28;20105;-73
2024/01/01 07:12:23;;;;;;;1999.90;999.90;;;6.30;99.90;;;;;;5054349;28;20380;-74
2024/01/01 07:14:49;;;;;;;1999.90;999.90;;;6.30;99.90;;;;;;5056090;28;20545;-75
2024/01/01 07:17:15;;;;;;;1999.90;999.90;;;6.40;99.90;;;;;;5056041;28;20038;-74
2024/01/01 07:19:41;;;;;;;1999.90;999.90;;;6.40;99.90;;;;;;5056103;28;20364;-74
2024/01/01 07:22:06;;;;;;;1999.90;999.90;;;6.30;99.90;;;;;;5055516;28;20046;-74
2024/01/01 07:24:32;;;;;;;1999.90;999.90;;;6.30;99.90;;;;;;5053949;28;20443;-74
2024/01/01 07:26:57;;;;;;;1999.90;999.90;;;6.30;99.90;;;;;;5055926;28;20045;-73
2024/01/01 07:29:23;;;;;;;1999.90;999.90;;;6.40;99.90;;;;;;5054221;28;20068;-75
2024/01/01 07:31:49;;;;;;;1999.90;999.90;;;6.40;99.90;;;;;;5056200;28;20514;-74
2024/01/01 07:34:19;;;;;;;1999.90;999.90;;;6.60;99.90;;;;;;5053946;28;20038;-75
2024/01/01 07:36:45;;;;;;;1999.90;999.90;;;6.60;99.90;;;;;;5055853;28;20788;-75
2024/01/01 07:39:11;;;;;;;1999.90;999.90;;;6.60;99.90;;;;;;5054766;28;20030;-75
2024/01/01 07:41:36;;;;;;;1999.90;999.90;;;6.70;99.90;;;;;;5055427;28;20064;-75
2024/01/01 07:44:02;;;;;;;1999.90;999.90;;;6.60;99.90;;;;;;5055446;28;20387;-75
2024/01/01 07:46:28;;;;;;;1999.90;999.90;;;6.60;99.90;;;;;;5055574;28;20073;-75
2024/01/01 07:48:55;;;;;;;1999.90;999.90;;;6.60;99.90;;;;;;5055518;28;20033;-75
2024/01/01 07:51:21;;;;;;;1999.90;999.90;;;6.60;99.90;;;;;;5055310;28;20035;-75
2024/01/01 07:53:48;;;;;;;1999.90;999.90;;;6.50;99.90;;;;;;5055301;28;20026;-75
2024/01/01 07:56:14;;;;;;;1999.90;999.90;;;6.40;99.90;;;;;;5053803;28;20586;-75
2024/01/01 07:58:39;;;;;;;1999.90;999.90;;;6.30;99.90;;;;;;5055369;28;20101;-75
2024/01/01 08:01:06;;;;;;;1999.90;999.90;;;6.20;99.90;;;;;;5055257;28;20041;-76
2024/01/01 08:03:32;;;;;;;1999.90;999.90;;;6.20;99.90;;;;;;5053714;28;20030;-76
2024/01/01 08:05:57;;;;;;;1999.90;999.90;;;6.10;99.90;;;;;;5054895;28;20043;-76
2024/01/01 08:08:23;;;;;;;1999.90;999.90;;;6.10;99.90;;;;;;5057728;28;20038;-75
2024/01/01 08:10:49;;;;;;;1999.90;999.90;;;6.10;99.90;;;;;;5055604;28;20034;-75
2024/01/01 08:13:14;;;;;;;1999.90;999.90;;;6.10;99.90;;;;;;5056273;28;20030;-75
2024/01/01 08:15:40;;;;;;;1999.90;999.90;;;6.10;99.90;;;;;;5055133;28;20405;-75
2024/01/01 08:18:06;;;;;;;1999.90;999.90;;;6.00;99.90;;;;;;5055406;28;20037;-76
2024/01/01 08:20:31;;;;;;;1999.90;999.90;;;6.00;99.90;;;;;;5056333;28;20047;-78
2024/01/01 08:22:57;;;;;;;1999.90;999.90;;;6.00;99.90;;;;;;5054578;28;20036;-76
2024/01/01 08:25:23;;;;;;;1999.90;999.90;;;6.00;99.90;;;;;;5055362;28;20033;-75
2024/01/01 08:27:49;;;;;;;1999.90;999.90;;;6.10;99.90;;;;;;5057186;28;20037;-75
2024/01/01 08:30:14;;;;;;;1999.90;999.90;;;6.10;99.90;;;;;;5055439;28;20025;-75
2024/01/01 08:32:40;;;;;;;1999.90;999.90;;;6.20;99.90;;;;;;5055137;28;20108;-78
2024/01/01 08:35:06;;;;;;;1999.90;999.90;;;6.30;99.90;;;;;;5053652;28;20045;-77
2024/01/01 08:37:32;;;;;;;1999.90;999.90;;;6.30;99.90;;;;;;5053852;28;20033;-79
2024/01/01 08:39:58;;;;;;;1999.90;999.90;;;6.30;99.90;;;;;;5055646;28;20406;-75
2024/01/01 08:42:24;;;;;;;1999.90;999.90;;;6.40;99.90;;;;;;5055543;28;20030;-75
2024/01/01 08:44:50;;;;;;;1999.90;999.90;;;6.40;99.90;;;;;;5055215;28;20553;-77
2024/01/01 08:47:15;;;;;;;1999.90;999.90;;;6.40;99.90;;;;;;5055123;28;20088;-76
2024/01/01 08:49:41;;;;;;;1999.90;999.90;;;6.50;99.90;;;;;;5056320;28;20036;-81
2024/01/01 08:52:07;;;;;;;1999.90;999.90;;;6.60;99.90;;;;;;5056312;28;20026;-77
2024/01/01 08:54:33;;;;;;;1999.90;999.90;;;6.70;99.90;;;;;;5055157;28;20042;-75
2024/01/01 08:56:59;;;;;;;1999.90;999.90;;;6.60;99.90;;;;;;5053766;28;20136;-75
2024/01/01 08:59:27;;;;;;;1999.90;999.90;;;6.60;99.90;;;;;;5054488;28;20048;-77
2024/01/01 09:01:52;;;;;;;1999.90;999.90;;;6.70;99.90;;;;;;5052733;28;20509;-74
2024/01/01 09:04:18;;;;;;;1999.90;999.90;;;6.70;99.90;;;;;;5052516;28;20045;-73
2024/01/01 09:06:44;;;;;;;1999.90;999.90;;;6.70;99.90;;;;;;5054350;28;20038;-73
2024/01/01 09:09:10;;;;;;;1999.90;999.90;;;6.80;99.90;;;;;;5054196;28;20025;-72
2024/01/01 09:11:36;;;;;;;1999.90;999.90;;;6.80;99.90;;;;;;5053023;28;20087;-72
2024/01/01 09:14:02;;;;;;;1999.90;999.90;;;6.80;99.90;;;;;;5054171;28;20033;-72
2024/01/01 09:16:29;;;;;;;1999.90;999.90;;;6.90;99.90;;;;;;5054131;28;20495;-73
2024/01/01 09:18:56;;;;;;;1999.90;999.90;;;7.10;99.90;;;;;;5054517;28;20091;-73
2024/01/01 09:21:24;;;;;;;1999.90;999.90;;;7.40;99.90;;;;;;5057552;22;20046;-75
2024/01/01 09:23:49;;;;;;;1999.90;999.90;;;7.60;99.90;;;;;;5033641;28;20412;-75
2024/01/01 09:26:15;;;;;;;1999.90;999.90;;;7.50;99.90;;;;;;5049631;28;20107;-75
2024/01/01 09:28:40;;;;;;;1999.90;999.90;;;7.50;99.90;;;;;;5031619;28;20039;-76
2024/01/01 09:31:06;;;;;;;1999.90;999.90;;;7.40;99.90;;;;;;5013070;28;20117;-75
2024/01/01 09:33:32;;;;;;;1999.90;999.90;;;7.40;99.90;;;;;;5014241;28;20404;-75
2024/01/01 09:35:57;;;;;;;1999.90;999.90;;;7.40;99.90;;;;;;5024496;28;20041;-76
2024/01/01 09:38:23;;;;;;;1999.90;999.90;;;7.50;99.90;;;;;;5027616;28;20113;-74
2024/01/01 09:40:49;;;;;;;1999.90;999.90;;;7.60;99.90;;;;;;5033248;28;20037;-76
2024/01/01 09:43:16;;;;;;;1999.90;999.90;;;7.70;99.90;;;;;;5014382;28;20026;-77
2024/01/01 09:45:42;;;;;;;1999.90;999.90;;;7.80;99.90;;;;;;5023117;28;20038;-75
2024/01/01 09:48:08;;;;;;;1999.90;999.90;;;7.90;99.90;;;;;;5034115;28;20463;-76
2024/01/01 09:50:34;;;;;;;1999.90;999.90;;;7.90;99.90;;;;;;5042357;28;20041;-76
2024/01/01 09:53:00;;;;;;;1999.90;999.90;;;7.80;99.90;;;;;;5051563;28;20033;-75
2024/01/01 09:55:26;;;;;;;1999.90;999.90;;;7.70;99.90;;;;;;5051639;28;20084;-75
2024/01/01 09:57:51;;;;;;;1999.90;999.90;;;7.80;99.90;;;;;;5054046;28;20409;-76
2024/01/01 10:00:21;;;;;;;1999.90;999.90;;;7.90;99.90;;;;;;5042147;28;20132;-76
2024/01/01 10:02:47;;;;;;;1999.90;999.90;;;8.10;99.90;;;;;;5032827;28;20066;-75
2024/01/01 10:05:14;;;;;;;1999.90;999.90;;;8.20;99.90;;;;;;5017947;28;20062;-76
2024/01/01 10:07:40;;;;;;;1999.90;999.90;;;8.30;99.90;;;;;;5018454;28;20058;-75
2024/01/01 10:10:06;;;;;;;1999.90;999.90;;;8.30;99.90;;;;;;5037331;28;20054;-74
2024/01/01 10:12:34;;;;;;;1999.90;999.90;;;8.40;99.90;;;;;;5043672;28;20099;-75
2024/01/01 10:15:00;;;;;;;1999.90;999.90;;;8.40;99.90;;;;;;5056706;28;20037;-73
2024/01/01 10:17:26;;;;;;;1999.90;999.90;;;8.40;99.90;;;;;;5052272;28;20169;-73
2024/01/01 10:19:52;;;;;;;1999.90;999.90;;;8.40;99.90;;;;;;5036477;28;21036;-74
2024/01/01 10:22:19;;;;;;;1999.90;999.90;;;8.50;99.90;;;;;;5021381;28;20093;-74
2024/01/01 10:24:47;;;;;;;1999.90;999.90;;;8.60;99.90;;;;;;5015560;28;20084;-74
2024/01/01 10:27:17;;;;;;;1999.90;999.90;;;8.70;99.90;;;;;;5017283;28;20035;-74
2024/01/01 10:29:45;;;;;;;1999.90;999.90;;;8.80;99.90;;;;;;5017107;28;20080;-74
2024/01/01 10:32:16;;;;;;;1999.90;999.90;;;8.90;99.90;;;;;;5016813;28;20738;-74
2024/01/01 10:34:45;;;;;;;1999.90;999.90;;;9.00;99.90;;;;;;5017006;28;20027;-74
2024/01/01 10:37:11;;;;;;;1999.90;999.90;;;9.00;99.90;;;;;;5039857;28;20065;-72
2024/01/01 10:39:39;;;;;;;1999.90;999.90;;;9.00;99.90;;;;;;5056701;28;20029;-73
2024/01/01 10:42:06;;;;;;;1999.90;999.90;;;8.90;99.90;;;;;;5056412;28;20044;-72
2024/01/01 10:44:31;;;;;;;1999.90;999.90;;;8.90;99.90;;;;;;5056356;28;20762;-73
2024/01/01 10:46:58;;;;;;;1999.90;999.90;;;8.90;99.90;;;;;;5056185;28;20498;-73
